Main page
METAR-TAF:

METAR-TAF

Airports :

Sultan Abdul Halim Airport

Alor Setar, Malaysia

latitude: 06-11-40N, longitude: 100-24-03E, elevation: 5 m

Current weather observation

The report was made 26 minutes ago, at 05:00 UTC
Wind 2 kt from variable directions
Temperature 32°C
Humidity 71%
Pressure 1010 hPa
Visibility: 9000 m
Few clouds at a height of 2000 ft

METAR: WMKA 270500Z VRB02KT 9000 FEW020 32/26 Q1010

Time: 13:26 (05:26 UTC)

Forecast

The report was made 6 hours and 26 minutes ago, at 23:00 UTC
Forecast valid from 27 at 00 UTC to 28 at 00 UTC
Wind 3 kt from variable directions
Visibility 10 km or more
Few clouds at a height of 2000 ft
Becoming
from 27 at 04 UTC to 27 at 06 UTC
Wind 8 kt from the West
Becoming
from 27 at 11 UTC to 27 at 13 UTC
Wind 3 kt from variable directions
Few clouds at a height of 3000 ft

TAF: WMKA 262300Z 2700/2800 VRB03KT 9999 FEW020 BECMG 2704/2706 26008KT BECMG 2711/2713 VRB03KT FEW030

Weather observations and forecasts of more than 4000 airports (METAR and TAF reports).

The available stations are represented by yellow and red dots on the map.

Hover mouse over dot to see the name of the station.

Then click to see weather observations and forecasts.

To change the map : click on the green buttons with a black cross to zoom in, on the green button with a dash to zoom out, or on the green arrows for adjacent maps.


METAR-TAF: